Terminal Aerodrome Forecast
Issued by NWS

Home | Current Version | Previous Version | Text Only | Print | Product List | Glossary On
Versions: 1 2 3 4 5 6 7 8 9 10 11 12 13 14 15
000
FTUS44 KTSA 280000 AAA
TAFXNA
TAF AMD
KXNA 280000Z 2800/2824 05010KT P6SM TS SCT025CB BKN100
      TEMPO 2800/2801 04015G30KT 2SM +TSRA BKN025CB
     FM280200 VRB03KT P6SM BKN120
     FM280600 00000KT 5SM BR FEW030 SCT150
     FM281500 VRB03KT P6SM SCT100 BKN250
     FM281900 18006KT P6SM SCT040 SCT250=

USA.gov is the U.S. government's official web portal to all federal, state and local government web resources and services.